createdAt,value
2018-06-11T07:07:08.969Z,14.47
2018-06-11T07:09:37.445Z,12.60
2018-06-11T07:12:05.894Z,13.17
2018-06-11T07:14:34.362Z,13.30
2018-06-11T07:17:02.922Z,13.20
2018-06-11T07:19:31.408Z,13.70
2018-06-11T07:21:59.889Z,14.43
2018-06-11T07:24:28.036Z,15.87
2018-06-11T07:26:56.493Z,14.00
2018-06-11T07:29:24.930Z,13.47
2018-06-11T07:31:53.376Z,14.20
2018-06-11T07:34:21.829Z,14.53
2018-06-11T07:36:50.282Z,14.70
2018-06-11T07:39:18.725Z,14.40
2018-06-11T07:41:47.514Z,14.33
2018-06-11T07:44:15.731Z,14.93
2018-06-11T07:46:44.217Z,15.20
2018-06-11T07:49:12.737Z,15.50
2018-06-11T07:51:41.250Z,15.57
2018-06-11T07:54:09.705Z,15.87
2018-06-11T07:56:38.160Z,15.07
2018-06-11T07:59:06.604Z,15.73
2018-06-11T08:01:35.053Z,16.30
2018-06-11T08:04:03.517Z,16.10
2018-06-11T08:06:32.085Z,15.20
2018-06-11T08:09:00.548Z,15.67
2018-06-11T08:11:29.004Z,15.80
2018-06-11T08:13:57.453Z,15.67
2018-06-11T08:16:25.906Z,15.90
2018-06-11T08:18:54.341Z,14.90
2018-06-11T08:21:22.773Z,15.53
2018-06-11T08:23:51.234Z,14.83
2018-06-11T08:26:19.676Z,14.60
2018-06-11T08:28:48.161Z,15.10
2018-06-11T08:31:16.621Z,14.10
2018-06-11T08:33:45.118Z,15.00
2018-06-11T08:36:13.541Z,15.17
2018-06-11T08:38:42.022Z,13.90
2018-06-11T08:41:10.497Z,14.43
2018-06-11T08:43:38.970Z,15.50
2018-06-11T08:46:07.465Z,14.70
2018-06-11T08:48:35.914Z,14.30
2018-06-11T08:51:04.411Z,16.10
2018-06-11T08:53:32.873Z,15.73
2018-06-11T08:56:01.034Z,15.87
2018-06-11T08:58:29.489Z,13.80
2018-06-11T09:00:57.986Z,15.53
2018-06-11T09:03:26.485Z,15.70
2018-06-11T09:05:54.930Z,13.57
2018-06-11T09:08:23.381Z,11.83
2018-06-11T09:10:51.850Z,13.60
2018-06-11T09:13:20.289Z,12.97
2018-06-11T09:15:48.737Z,11.83
2018-06-11T09:18:17.338Z,12.33
2018-06-11T09:20:45.737Z,11.67
2018-06-11T09:23:14.201Z,10.90
2018-06-11T09:25:42.661Z,14.43
2018-06-11T09:28:11.122Z,11.97
2018-06-11T09:30:39.557Z,14.47
2018-06-11T09:33:07.999Z,12.20
2018-06-11T09:35:36.437Z,11.13
2018-06-11T09:38:04.945Z,11.70
2018-06-11T09:40:33.433Z,10.77
2018-06-11T09:43:02.291Z,10.93
2018-06-11T09:45:30.789Z,9.70
2018-06-11T09:47:59.252Z,10.30
2018-06-11T09:50:27.705Z,10.90
2018-06-11T09:52:56.177Z,11.20
2018-06-11T09:55:24.643Z,11.63
2018-06-11T09:57:53.173Z,11.03
2018-06-11T10:00:27.089Z,10.73
2018-06-11T10:02:55.541Z,10.63
2018-06-11T10:05:23.998Z,11.10
2018-06-11T10:07:52.441Z,11.20
2018-06-11T10:10:20.936Z,11.50
2018-06-11T10:12:50.861Z,11.57
2018-06-11T10:15:19.313Z,11.00
2018-06-11T10:17:48.243Z,10.47
2018-06-11T10:20:16.689Z,10.50
2018-06-11T10:22:44.840Z,10.37
2018-06-11T10:25:13.009Z,9.97
2018-06-11T10:27:41.136Z,11.13
2018-06-11T10:30:09.577Z,11.23
2018-06-11T10:32:37.748Z,10.77
2018-06-11T10:35:06.210Z,10.70
2018-06-11T10:37:34.649Z,10.13
2018-06-11T10:40:03.122Z,10.90
2018-06-11T10:42:31.582Z,9.87
2018-06-11T10:45:00.036Z,10.40
2018-06-11T10:47:28.490Z,9.70
2018-06-11T10:49:56.929Z,10.87
2018-06-11T10:52:25.411Z,9.60
2018-06-11T10:54:53.868Z,10.23
2018-06-11T10:57:22.420Z,9.70
2018-06-11T10:59:50.867Z,10.00
2018-06-11T11:02:19.304Z,9.40
2018-06-11T11:04:47.837Z,10.53
2018-06-11T11:07:16.313Z,9.37
2018-06-11T11:09:44.737Z,9.50
2018-06-11T11:12:13.176Z,9.57
2018-06-11T11:14:41.620Z,11.23
2018-06-11T11:17:10.089Z,10.87
2018-06-11T11:19:38.528Z,17.23
2018-06-11T11:22:06.969Z,10.63
2018-06-11T11:24:35.462Z,10.60
2018-06-11T11:27:03.918Z,10.30
2018-06-11T11:29:32.370Z,10.70
2018-06-11T11:32:00.824Z,10.93
2018-06-11T11:34:29.269Z,15.30
2018-06-11T11:36:57.737Z,10.67
2018-06-11T11:39:26.187Z,10.47
2018-06-11T11:41:54.638Z,10.80
2018-06-11T11:44:23.325Z,10.87
2018-06-11T11:46:51.807Z,11.17
2018-06-11T11:49:20.355Z,11.43
2018-06-11T11:51:48.831Z,10.83
2018-06-11T11:54:17.278Z,11.77
2018-06-11T11:56:45.737Z,10.30
2018-06-11T11:59:14.201Z,10.20
2018-06-11T12:01:42.772Z,10.57
2018-06-11T12:04:11.193Z,10.70
2018-06-11T12:06:39.697Z,11.60
2018-06-11T12:09:08.164Z,10.97
2018-06-11T12:11:36.630Z,10.43
2018-06-11T12:14:05.105Z,10.70
2018-06-11T12:16:33.564Z,12.90
2018-06-11T12:19:02.395Z,10.60
2018-06-11T12:21:30.862Z,10.97
2018-06-11T12:23:59.314Z,11.10
2018-06-11T12:26:27.765Z,11.30
2018-06-11T12:28:56.260Z,11.03
2018-06-11T12:31:24.416Z,10.30
2018-06-11T12:33:52.849Z,11.30
2018-06-11T12:36:21.309Z,9.93
2018-06-11T12:38:49.754Z,9.80
2018-06-11T12:41:18.193Z,10.80
2018-06-11T12:43:46.658Z,9.77
2018-06-11T12:46:15.109Z,10.47
2018-06-11T12:48:43.544Z,10.20
2018-06-11T12:51:12.098Z,9.70
2018-06-11T12:53:40.609Z,9.40
2018-06-11T12:56:09.045Z,9.67
2018-06-11T12:58:37.579Z,10.70
2018-06-11T13:01:06.058Z,10.18
2018-06-11T13:03:34.485Z,9.40
2018-06-11T13:06:03.029Z,7.90
2018-06-11T13:08:31.477Z,9.17
2018-06-11T13:10:59.932Z,8.43
2018-06-11T13:13:28.364Z,9.93
2018-06-11T13:15:56.830Z,9.50
2018-06-11T13:18:25.269Z,8.80
2018-06-11T13:20:53.714Z,8.57
2018-06-11T13:23:22.181Z,12.33
2018-06-11T13:25:50.622Z,9.43
2018-06-11T13:28:19.080Z,10.20
2018-06-11T13:30:47.529Z,10.57
2018-06-11T13:33:15.973Z,9.40
2018-06-11T13:35:44.420Z,9.63
2018-06-11T13:38:12.861Z,9.80
2018-06-11T13:40:41.325Z,10.13
2018-06-11T13:43:09.749Z,11.50
2018-06-11T13:45:38.234Z,9.70
2018-06-11T13:48:06.674Z,9.70
2018-06-11T13:50:35.168Z,11.37
2018-06-11T13:53:04.121Z,9.40
2018-06-11T13:55:32.279Z,16.10
2018-06-11T13:58:00.725Z,8.57
2018-06-11T14:00:29.218Z,8.20
2018-06-11T14:02:57.672Z,11.50
2018-06-11T14:05:26.124Z,8.63
2018-06-11T14:07:54.554Z,7.53
2018-06-11T14:10:23.037Z,8.00
2018-06-11T14:12:51.470Z,7.90
2018-06-11T14:15:19.937Z,8.00
2018-06-11T14:17:48.400Z,7.80
2018-06-11T14:20:16.888Z,9.83
2018-06-11T14:22:45.060Z,19.10
2018-06-11T14:25:13.194Z,6.93
2018-06-11T14:27:41.661Z,7.10
2018-06-11T14:30:10.105Z,6.67
2018-06-11T14:32:38.593Z,7.40
2018-06-11T14:35:07.173Z,6.93
2018-06-11T14:37:35.686Z,7.10
2018-06-11T14:40:04.184Z,6.90
2018-06-11T14:42:32.621Z,8.27
2018-06-11T14:45:00.800Z,7.40
2018-06-11T14:47:29.245Z,6.83
2018-06-11T14:49:57.681Z,6.80
2018-06-11T14:52:26.129Z,8.23
2018-06-11T14:54:54.572Z,8.00
2018-06-11T14:57:23.027Z,8.00
2018-06-11T14:59:51.473Z,11.00
2018-06-11T15:02:20.237Z,8.13
2018-06-11T15:04:48.746Z,7.10
2018-06-11T15:07:17.256Z,10.60
2018-06-11T15:09:45.702Z,7.77
2018-06-11T15:12:13.886Z,7.40
2018-06-11T15:14:42.367Z,8.30
2018-06-11T15:17:10.821Z,8.30
2018-06-11T15:19:39.253Z,8.33
2018-06-11T15:22:07.699Z,7.40
2018-06-11T15:24:36.161Z,8.47
2018-06-11T15:27:04.614Z,8.00
2018-06-11T15:29:33.119Z,7.80
2018-06-11T15:32:01.205Z,9.17
2018-06-11T15:34:29.637Z,9.00
2018-06-11T15:36:58.117Z,10.30
2018-06-11T15:39:26.728Z,9.70
2018-06-11T15:41:55.226Z,9.47
2018-06-11T15:44:23.732Z,9.57
2018-06-11T15:46:51.865Z,9.37
2018-06-11T15:49:20.372Z,10.53
2018-06-11T15:51:48.813Z,10.10
2018-06-11T15:54:17.242Z,9.00
2018-06-11T15:56:45.744Z,9.60
2018-06-11T15:59:14.297Z,9.23
2018-06-11T16:01:42.749Z,9.40
2018-06-11T16:04:11.177Z,8.93
2018-06-11T16:06:39.635Z,9.57
2018-06-11T16:09:08.157Z,9.57
2018-06-11T16:11:36.616Z,9.03
2018-06-11T16:14:04.785Z,12.63
2018-06-11T16:16:33.231Z,10.67
2018-06-11T16:19:01.682Z,9.57
2018-06-11T16:21:30.165Z,10.07
2018-06-11T16:23:58.659Z,10.30
2018-06-11T16:26:27.141Z,10.05
2018-06-11T16:43:48.105Z,11.70
2018-06-11T16:53:47.671Z,10.05
2018-06-11T16:58:44.424Z,12.70
2018-06-11T17:01:12.984Z,13.20
2018-06-11T17:06:04.844Z,13.40
2018-06-11T17:10:59.173Z,13.50
2018-06-11T17:36:36.548Z,12.60
2018-06-11T17:39:07.289Z,12.10
2018-06-11T17:58:55.787Z,11.40
2018-06-11T18:06:22.078Z,12.10
2018-06-11T19:10:22.681Z,16.03
2018-06-11T19:12:51.141Z,12.27
2018-06-11T19:15:19.641Z,11.47
2018-06-11T19:17:48.101Z,11.67
2018-06-11T19:20:16.558Z,10.30
2018-06-11T19:22:45.002Z,11.23
2018-06-11T20:09:32.398Z,11.10
2018-06-11T20:12:00.949Z,11.57
2018-06-11T20:14:29.433Z,12.00
2018-06-11T20:16:57.905Z,11.97
2018-06-11T20:19:26.418Z,13.17
2018-06-11T20:21:54.913Z,12.87
2018-06-11T20:24:23.073Z,11.53
2018-06-11T20:26:51.565Z,12.60
2018-06-11T20:29:20.045Z,11.63
2018-06-11T20:31:48.489Z,11.10
2018-06-11T20:34:16.977Z,11.60
2018-06-11T20:36:45.454Z,11.40
2018-06-11T20:39:13.956Z,11.60
2018-06-11T20:41:42.466Z,11.23
2018-06-11T20:44:10.941Z,11.10
2018-06-11T20:46:39.378Z,11.70
2018-06-11T20:49:07.861Z,14.87
2018-06-11T20:51:36.389Z,12.20
2018-06-11T20:54:04.860Z,11.93
2018-06-11T20:56:33.301Z,11.30
2018-06-11T20:59:01.809Z,10.67
2018-06-11T21:01:30.265Z,11.53
2018-06-11T21:03:58.719Z,11.40
2018-06-11T21:06:27.214Z,12.00
2018-06-11T21:08:55.640Z,12.70
2018-06-11T21:11:24.109Z,11.43
2018-06-11T21:13:52.617Z,11.50
2018-06-11T21:16:21.077Z,10.50
2018-06-11T21:18:49.525Z,12.30
2018-06-11T21:21:17.994Z,10.80
2018-06-11T21:23:46.432Z,12.00
2018-06-11T21:26:14.883Z,12.10
2018-06-11T21:28:43.360Z,12.80
2018-06-11T21:31:11.821Z,11.73
2018-06-11T21:33:40.261Z,11.53
2018-06-11T21:36:08.717Z,11.23
2018-06-11T21:38:37.168Z,12.20
2018-06-11T21:41:05.905Z,11.43
2018-06-11T21:43:34.379Z,11.57
2018-06-11T21:46:02.842Z,11.90
2018-06-11T21:48:31.281Z,11.07
2018-06-11T21:50:59.749Z,10.97
2018-06-11T21:53:28.215Z,11.23
2018-06-11T21:55:56.776Z,11.13
2018-06-11T21:58:25.216Z,11.70
2018-06-11T22:00:53.707Z,11.87
2018-06-11T22:03:22.266Z,13.70
2018-06-11T22:05:50.717Z,11.17
2018-06-11T22:08:19.157Z,12.50
2018-06-11T22:10:47.623Z,12.17
2018-06-11T22:13:16.103Z,10.97
2018-06-11T22:15:44.683Z,10.97
2018-06-11T22:18:13.160Z,10.97
2018-06-11T22:20:41.636Z,11.40
2018-06-11T22:23:10.193Z,11.57
2018-06-11T22:25:38.625Z,11.57
2018-06-11T22:28:07.072Z,10.63
2018-06-11T22:30:35.259Z,9.87
2018-06-11T22:33:03.709Z,10.93
2018-06-11T22:35:32.163Z,11.13
2018-06-11T22:38:00.629Z,11.00
2018-06-11T22:40:29.138Z,9.77
2018-06-11T22:42:57.597Z,11.83
2018-06-11T22:45:26.077Z,11.27
2018-06-11T22:47:54.530Z,10.77
2018-06-11T22:50:22.993Z,11.30
2018-06-11T22:52:51.480Z,12.30
2018-06-11T22:55:19.914Z,10.87
2018-06-11T22:57:48.374Z,11.27
2018-06-11T23:00:24.790Z,11.03
2018-06-11T23:02:53.233Z,11.77
2018-06-11T23:05:21.703Z,11.97
2018-06-11T23:07:50.206Z,11.40
2018-06-11T23:10:18.685Z,11.47
2018-06-11T23:12:47.150Z,11.03
2018-06-11T23:15:15.672Z,11.40
2018-06-11T23:17:44.623Z,10.70
2018-06-11T23:20:13.083Z,11.73
2018-06-11T23:22:41.604Z,10.93
2018-06-11T23:25:10.052Z,12.17
2018-06-11T23:27:38.500Z,11.30
2018-06-11T23:30:07.018Z,10.73
2018-06-11T23:32:35.482Z,11.73
2018-06-11T23:35:03.941Z,11.33
2018-06-11T23:37:32.109Z,11.03
2018-06-11T23:40:00.585Z,10.60
2018-06-11T23:42:29.017Z,10.97
2018-06-11T23:44:57.460Z,13.40
2018-06-11T23:47:25.925Z,12.50
2018-06-11T23:49:54.376Z,11.63
2018-06-11T23:52:22.840Z,11.83
2018-06-11T23:54:51.306Z,11.47
2018-06-11T23:57:19.761Z,12.10
2018-06-11T23:59:48.211Z,12.07
